sensor_id;sensor_type;location;lat;lon;timestamp;P1;durP1;ratioP1;P2;durP2;ratioP2
67816;SDS011;54614;47.576;7.524;2022-10-16T00:01:23;1.30;;;1.20;;
67816;SDS011;54614;47.576;7.524;2022-10-16T00:03:52;1.27;;;1.17;;
67816;SDS011;54614;47.576;7.524;2022-10-16T00:06:20;2.45;;;1.30;;
67816;SDS011;54614;47.576;7.524;2022-10-16T00:08:47;1.35;;;1.00;;
67816;SDS011;54614;47.576;7.524;2022-10-16T00:11:21;3.35;;;1.35;;
67816;SDS011;54614;47.576;7.524;2022-10-16T00:13:51;1.88;;;1.23;;
67816;SDS011;54614;47.576;7.524;2022-10-16T00:16:22;1.40;;;1.20;;
67816;SDS011;54614;47.576;7.524;2022-10-16T00:18:48;1.15;;;1.10;;
67816;SDS011;54614;47.576;7.524;2022-10-16T00:21:22;1.20;;;1.10;;
67816;SDS011;54614;47.576;7.524;2022-10-16T00:24:00;1.40;;;1.30;;
67816;SDS011;54614;47.576;7.524;2022-10-16T00:26:30;1.80;;;1.40;;
67816;SDS011;54614;47.576;7.524;2022-10-16T00:28:59;1.30;;;1.20;;
67816;SDS011;54614;47.576;7.524;2022-10-16T00:31:25;2.05;;;1.20;;
67816;SDS011;54614;47.576;7.524;2022-10-16T00:33:52;3.42;;;1.20;;
67816;SDS011;54614;47.576;7.524;2022-10-16T00:36:19;1.55;;;1.20;;
67816;SDS011;54614;47.576;7.524;2022-10-16T00:38:50;2.33;;;1.35;;
67816;SDS011;54614;47.576;7.524;2022-10-16T00:41:20;2.58;;;1.23;;
67816;SDS011;54614;47.576;7.524;2022-10-16T00:43:52;2.05;;;1.30;;
67816;SDS011;54614;47.576;7.524;2022-10-16T00:46:27;2.85;;;1.20;;
67816;SDS011;54614;47.576;7.524;2022-10-16T00:49:12;2.63;;;1.27;;
67816;SDS011;54614;47.576;7.524;2022-10-16T00:51:50;1.33;;;1.20;;
67816;SDS011;54614;47.576;7.524;2022-10-16T00:56:52;1.45;;;1.10;;
67816;SDS011;54614;47.576;7.524;2022-10-16T00:59:31;1.67;;;1.30;;
67816;SDS011;54614;47.576;7.524;2022-10-16T01:02:02;2.08;;;1.20;;
67816;SDS011;54614;47.576;7.524;2022-10-16T01:04:32;1.83;;;1.10;;
67816;SDS011;54614;47.576;7.524;2022-10-16T01:07:12;2.03;;;1.10;;
67816;SDS011;54614;47.576;7.524;2022-10-16T01:13:06;1.30;;;1.13;;
67816;SDS011;54614;47.576;7.524;2022-10-16T01:18:27;2.17;;;1.20;;
67816;SDS011;54614;47.576;7.524;2022-10-16T01:21:49;1.60;;;1.30;;
67816;SDS011;54614;47.576;7.524;2022-10-16T01:24:01;1.73;;;1.17;;
67816;SDS011;54614;47.576;7.524;2022-10-16T01:29:54;1.48;;;1.27;;
67816;SDS011;54614;47.576;7.524;2022-10-16T01:33:02;1.73;;;1.20;;
67816;SDS011;54614;47.576;7.524;2022-10-16T01:35:41;1.98;;;1.10;;
67816;SDS011;54614;47.576;7.524;2022-10-16T01:38:17;1.60;;;1.20;;
67816;SDS011;54614;47.576;7.524;2022-10-16T01:41:03;1.67;;;1.10;;
67816;SDS011;54614;47.576;7.524;2022-10-16T01:43:39;2.20;;;1.33;;
67816;SDS011;54614;47.576;7.524;2022-10-16T01:46:11;1.20;;;1.20;;
67816;SDS011;54614;47.576;7.524;2022-10-16T01:48:43;2.80;;;1.30;;
67816;SDS011;54614;47.576;7.524;2022-10-16T01:51:11;1.20;;;1.10;;
67816;SDS011;54614;47.576;7.524;2022-10-16T01:53:41;2.08;;;1.20;;
67816;SDS011;54614;47.576;7.524;2022-10-16T01:56:16;1.20;;;1.10;;
67816;SDS011;54614;47.576;7.524;2022-10-16T01:58:49;2.72;;;1.40;;
67816;SDS011;54614;47.576;7.524;2022-10-16T02:01:28;1.00;;;1.00;;
67816;SDS011;54614;47.576;7.524;2022-10-16T02:04:01;1.45;;;1.02;;
67816;SDS011;54614;47.576;7.524;2022-10-16T02:06:38;1.23;;;1.10;;
67816;SDS011;54614;47.576;7.524;2022-10-16T02:09:04;1.00;;;1.00;;
67816;SDS011;54614;47.576;7.524;2022-10-16T02:11:30;2.03;;;1.10;;
67816;SDS011;54614;47.576;7.524;2022-10-16T02:14:00;1.45;;;1.35;;
67816;SDS011;54614;47.576;7.524;2022-10-16T02:16:34;1.20;;;1.10;;
67816;SDS011;54614;47.576;7.524;2022-10-16T02:19:09;1.00;;;1.00;;
67816;SDS011;54614;47.576;7.524;2022-10-16T02:22:12;1.27;;;1.02;;
67816;SDS011;54614;47.576;7.524;2022-10-16T02:24:43;1.15;;;1.15;;
67816;SDS011;54614;47.576;7.524;2022-10-16T02:32:52;1.77;;;0.98;;
67816;SDS011;54614;47.576;7.524;2022-10-16T02:35:21;1.95;;;1.13;;
67816;SDS011;54614;47.576;7.524;2022-10-16T02:37:49;2.55;;;1.02;;
67816;SDS011;54614;47.576;7.524;2022-10-16T02:40:17;2.92;;;1.20;;
67816;SDS011;54614;47.576;7.524;2022-10-16T02:42:43;1.50;;;1.00;;
67816;SDS011;54614;47.576;7.524;2022-10-16T02:45:10;1.20;;;1.10;;
67816;SDS011;54614;47.576;7.524;2022-10-16T02:47:37;1.20;;;1.00;;
67816;SDS011;54614;47.576;7.524;2022-10-16T02:50:03;2.25;;;0.95;;
67816;SDS011;54614;47.576;7.524;2022-10-16T02:52:29;1.35;;;1.20;;
67816;SDS011;54614;47.576;7.524;2022-10-16T02:54:55;1.25;;;1.10;;
67816;SDS011;54614;47.576;7.524;2022-10-16T02:57:21;1.60;;;1.20;;
67816;SDS011;54614;47.576;7.524;2022-10-16T02:59:47;1.15;;;1.02;;
67816;SDS011;54614;47.576;7.524;2022-10-16T03:02:13;1.40;;;1.30;;
67816;SDS011;54614;47.576;7.524;2022-10-16T03:04:39;1.35;;;1.00;;
67816;SDS011;54614;47.576;7.524;2022-10-16T03:07:04;1.48;;;1.00;;
67816;SDS011;54614;47.576;7.524;2022-10-16T03:09:30;1.15;;;1.05;;
67816;SDS011;54614;47.576;7.524;2022-10-16T03:11:56;1.70;;;1.30;;
67816;SDS011;54614;47.576;7.524;2022-10-16T03:14:22;1.00;;;1.00;;
67816;SDS011;54614;47.576;7.524;2022-10-16T03:16:48;1.10;;;1.10;;
67816;SDS011;54614;47.576;7.524;2022-10-16T03:19:15;1.00;;;1.00;;
67816;SDS011;54614;47.576;7.524;2022-10-16T03:21:42;1.50;;;1.30;;
67816;SDS011;54614;47.576;7.524;2022-10-16T03:24:08;1.17;;;1.02;;
67816;SDS011;54614;47.576;7.524;2022-10-16T03:26:34;1.15;;;1.10;;
67816;SDS011;54614;47.576;7.524;2022-10-16T03:29:00;1.10;;;1.10;;
67816;SDS011;54614;47.576;7.524;2022-10-16T03:31:28;1.23;;;1.10;;
67816;SDS011;54614;47.576;7.524;2022-10-16T03:33:55;1.20;;;1.10;;
67816;SDS011;54614;47.576;7.524;2022-10-16T03:36:21;1.05;;;1.05;;
67816;SDS011;54614;47.576;7.524;2022-10-16T03:38:47;3.15;;;1.20;;
67816;SDS011;54614;47.576;7.524;2022-10-16T03:41:13;3.30;;;1.20;;
67816;SDS011;54614;47.576;7.524;2022-10-16T03:43:39;2.42;;;1.20;;
67816;SDS011;54614;47.576;7.524;2022-10-16T03:46:05;5.13;;;1.20;;
67816;SDS011;54614;47.576;7.524;2022-10-16T03:48:31;1.13;;;1.02;;
67816;SDS011;54614;47.576;7.524;2022-10-16T03:50:57;2.35;;;1.08;;
67816;SDS011;54614;47.576;7.524;2022-10-16T03:53:23;2.45;;;1.00;;
67816;SDS011;54614;47.576;7.524;2022-10-16T03:55:49;2.50;;;1.20;;
67816;SDS011;54614;47.576;7.524;2022-10-16T03:58:16;1.00;;;1.00;;
67816;SDS011;54614;47.576;7.524;2022-10-16T04:00:42;1.02;;;1.02;;
67816;SDS011;54614;47.576;7.524;2022-10-16T04:03:10;2.72;;;1.15;;
67816;SDS011;54614;47.576;7.524;2022-10-16T04:05:37;1.33;;;1.10;;
67816;SDS011;54614;47.576;7.524;2022-10-16T04:08:03;1.20;;;1.10;;
67816;SDS011;54614;47.576;7.524;2022-10-16T04:10:29;1.20;;;1.10;;
67816;SDS011;54614;47.576;7.524;2022-10-16T04:12:55;2.05;;;1.10;;
67816;SDS011;54614;47.576;7.524;2022-10-16T04:15:21;2.33;;;1.05;;
67816;SDS011;54614;47.576;7.524;2022-10-16T04:17:48;1.10;;;1.10;;
67816;SDS011;54614;47.576;7.524;2022-10-16T04:20:14;1.38;;;1.10;;
67816;SDS011;54614;47.576;7.524;2022-10-16T04:22:40;1.10;;;1.00;;
67816;SDS011;54614;47.576;7.524;2022-10-16T04:25:06;1.23;;;1.10;;
67816;SDS011;54614;47.576;7.524;2022-10-16T04:27:32;1.73;;;1.10;;
67816;SDS011;54614;47.576;7.524;2022-10-16T04:29:58;2.75;;;1.20;;
67816;SDS011;54614;47.576;7.524;2022-10-16T04:32:25;1.42;;;1.20;;
67816;SDS011;54614;47.576;7.524;2022-10-16T04:34:52;1.15;;;1.00;;
67816;SDS011;54614;47.576;7.524;2022-10-16T04:37:18;1.52;;;1.30;;
67816;SDS011;54614;47.576;7.524;2022-10-16T04:39:44;2.47;;;1.10;;
67816;SDS011;54614;47.576;7.524;2022-10-16T04:42:10;1.00;;;1.00;;
67816;SDS011;54614;47.576;7.524;2022-10-16T04:44:36;1.20;;;1.10;;
67816;SDS011;54614;47.576;7.524;2022-10-16T04:47:02;1.30;;;1.20;;
67816;SDS011;54614;47.576;7.524;2022-10-16T04:49:29;0.95;;;0.95;;
67816;SDS011;54614;47.576;7.524;2022-10-16T04:51:55;2.97;;;1.00;;
67816;SDS011;54614;47.576;7.524;2022-10-16T04:54:21;3.63;;;1.10;;
67816;SDS011;54614;47.576;7.524;2022-10-16T04:56:46;1.85;;;1.10;;
67816;SDS011;54614;47.576;7.524;2022-10-16T04:59:15;1.20;;;1.10;;
67816;SDS011;54614;47.576;7.524;2022-10-16T05:01:42;1.13;;;1.00;;
67816;SDS011;54614;47.576;7.524;2022-10-16T05:04:09;1.20;;;1.20;;
67816;SDS011;54614;47.576;7.524;2022-10-16T05:06:36;1.10;;;1.10;;
67816;SDS011;54614;47.576;7.524;2022-10-16T05:09:04;1.45;;;1.10;;
67816;SDS011;54614;47.576;7.524;2022-10-16T05:11:31;1.20;;;1.10;;
67816;SDS011;54614;47.576;7.524;2022-10-16T05:13:56;1.10;;;1.00;;
67816;SDS011;54614;47.576;7.524;2022-10-16T05:16:22;1.08;;;1.08;;
67816;SDS011;54614;47.576;7.524;2022-10-16T05:18:48;1.63;;;1.23;;
67816;SDS011;54614;47.576;7.524;2022-10-16T05:21:15;1.00;;;1.00;;
67816;SDS011;54614;47.576;7.524;2022-10-16T05:23:41;1.45;;;1.10;;
67816;SDS011;54614;47.576;7.524;2022-10-16T05:26:07;1.38;;;1.00;;
67816;SDS011;54614;47.576;7.524;2022-10-16T05:28:33;1.08;;;1.00;;
67816;SDS011;54614;47.576;7.524;2022-10-16T05:30:59;2.72;;;1.00;;
67816;SDS011;54614;47.576;7.524;2022-10-16T05:33:33;0.95;;;0.95;;
67816;SDS011;54614;47.576;7.524;2022-10-16T05:36:06;1.33;;;1.20;;
67816;SDS011;54614;47.576;7.524;2022-10-16T05:38:37;1.00;;;1.00;;
67816;SDS011;54614;47.576;7.524;2022-10-16T05:41:03;0.90;;;0.90;;
67816;SDS011;54614;47.576;7.524;2022-10-16T05:43:30;0.95;;;0.95;;
67816;SDS011;54614;47.576;7.524;2022-10-16T05:46:01;2.53;;;1.10;;
67816;SDS011;54614;47.576;7.524;2022-10-16T05:48:31;1.70;;;1.20;;
67816;SDS011;54614;47.576;7.524;2022-10-16T05:50:58;2.83;;;1.10;;
67816;SDS011;54614;47.576;7.524;2022-10-16T05:53:28;1.20;;;1.10;;
67816;SDS011;54614;47.576;7.524;2022-10-16T05:55:56;1.00;;;1.00;;
67816;SDS011;54614;47.576;7.524;2022-10-16T05:58:23;2.42;;;1.10;;
67816;SDS011;54614;47.576;7.524;2022-10-16T06:00:57;1.80;;;1.00;;
67816;SDS011;54614;47.576;7.524;2022-10-16T06:03:27;2.47;;;1.23;;
67816;SDS011;54614;47.576;7.524;2022-10-16T06:05:53;1.33;;;1.17;;
67816;SDS011;54614;47.576;7.524;2022-10-16T06:08:20;2.22;;;1.33;;
67816;SDS011;54614;47.576;7.524;2022-10-16T06:10:48;1.40;;;1.30;;
67816;SDS011;54614;47.576;7.524;2022-10-16T06:13:24;1.63;;;1.20;;
67816;SDS011;54614;47.576;7.524;2022-10-16T06:15:50;3.78;;;1.30;;
67816;SDS011;54614;47.576;7.524;2022-10-16T06:18:16;2.25;;;1.30;;
67816;SDS011;54614;47.576;7.524;2022-10-16T06:20:42;2.80;;;1.30;;
67816;SDS011;54614;47.576;7.524;2022-10-16T06:23:08;1.50;;;1.30;;
67816;SDS011;54614;47.576;7.524;2022-10-16T06:25:33;1.40;;;1.30;;
67816;SDS011;54614;47.576;7.524;2022-10-16T06:27:59;6.05;;;1.38;;
67816;SDS011;54614;47.576;7.524;2022-10-16T06:30:25;12.18;;;5.00;;
67816;SDS011;54614;47.576;7.524;2022-10-16T06:32:51;6.93;;;3.55;;
67816;SDS011;54614;47.576;7.524;2022-10-16T06:35:16;7.97;;;4.32;;
67816;SDS011;54614;47.576;7.524;2022-10-16T06:37:42;11.30;;;4.70;;
67816;SDS011;54614;47.576;7.524;2022-10-16T06:40:08;8.40;;;4.25;;
67816;SDS011;54614;47.576;7.524;2022-10-16T06:42:34;9.93;;;4.47;;
67816;SDS011;54614;47.576;7.524;2022-10-16T06:45:00;7.88;;;3.95;;
67816;SDS011;54614;47.576;7.524;2022-10-16T06:47:26;9.18;;;5.15;;
67816;SDS011;54614;47.576;7.524;2022-10-16T06:49:52;13.47;;;6.03;;
67816;SDS011;54614;47.576;7.524;2022-10-16T06:52:18;16.05;;;5.68;;
67816;SDS011;54614;47.576;7.524;2022-10-16T06:54:44;11.45;;;5.75;;
67816;SDS011;54614;47.576;7.524;2022-10-16T06:57:10;14.38;;;6.10;;
67816;SDS011;54614;47.576;7.524;2022-10-16T06:59:35;18.92;;;6.20;;
67816;SDS011;54614;47.576;7.524;2022-10-16T07:02:01;18.00;;;7.22;;
67816;SDS011;54614;47.576;7.524;2022-10-16T07:04:27;16.98;;;7.10;;
67816;SDS011;54614;47.576;7.524;2022-10-16T07:06:53;17.45;;;6.82;;
67816;SDS011;54614;47.576;7.524;2022-10-16T07:09:19;18.25;;;6.10;;
67816;SDS011;54614;47.576;7.524;2022-10-16T07:11:44;13.25;;;5.68;;
67816;SDS011;54614;47.576;7.524;2022-10-16T07:14:12;9.80;;;5.13;;
67816;SDS011;54614;47.576;7.524;2022-10-16T07:16:42;14.93;;;5.20;;
67816;SDS011;54614;47.576;7.524;2022-10-16T07:19:08;11.73;;;4.55;;
67816;SDS011;54614;47.576;7.524;2022-10-16T07:21:36;13.98;;;4.80;;
67816;SDS011;54614;47.576;7.524;2022-10-16T07:24:03;13.27;;;5.30;;
67816;SDS011;54614;47.576;7.524;2022-10-16T07:26:33;12.75;;;4.80;;
67816;SDS011;54614;47.576;7.524;2022-10-16T07:29:01;13.70;;;5.15;;
67816;SDS011;54614;47.576;7.524;2022-10-16T07:31:27;11.95;;;4.72;;
67816;SDS011;54614;47.576;7.524;2022-10-16T07:33:53;11.90;;;4.63;;
67816;SDS011;54614;47.576;7.524;2022-10-16T07:36:19;13.07;;;5.00;;
67816;SDS011;54614;47.576;7.524;2022-10-16T07:38:46;11.52;;;4.60;;
67816;SDS011;54614;47.576;7.524;2022-10-16T07:41:16;9.68;;;4.03;;
67816;SDS011;54614;47.576;7.524;2022-10-16T07:43:50;13.02;;;4.20;;
67816;SDS011;54614;47.576;7.524;2022-10-16T07:46:19;17.13;;;4.45;;
67816;SDS011;54614;47.576;7.524;2022-10-16T07:48:47;10.57;;;4.15;;
67816;SDS011;54614;47.576;7.524;2022-10-16T07:51:18;11.63;;;4.32;;
67816;SDS011;54614;47.576;7.524;2022-10-16T07:53:47;13.48;;;4.05;;
67816;SDS011;54614;47.576;7.524;2022-10-16T07:56:14;18.27;;;4.63;;
67816;SDS011;54614;47.576;7.524;2022-10-16T07:58:42;12.27;;;4.25;;
67816;SDS011;54614;47.576;7.524;2022-10-16T08:01:11;9.40;;;4.50;;
67816;SDS011;54614;47.576;7.524;2022-10-16T08:03:41;13.30;;;4.78;;
67816;SDS011;54614;47.576;7.524;2022-10-16T08:06:09;13.50;;;4.63;;
67816;SDS011;54614;47.576;7.524;2022-10-16T08:08:35;15.45;;;4.45;;
67816;SDS011;54614;47.576;7.524;2022-10-16T08:11:01;12.68;;;4.50;;
67816;SDS011;54614;47.576;7.524;2022-10-16T08:13:28;14.63;;;4.35;;
67816;SDS011;54614;47.576;7.524;2022-10-16T08:15:55;21.30;;;4.47;;
67816;SDS011;54614;47.576;7.524;2022-10-16T08:18:22;14.15;;;4.55;;
67816;SDS011;54614;47.576;7.524;2022-10-16T08:20:48;14.13;;;4.43;;
67816;SDS011;54614;47.576;7.524;2022-10-16T08:23:22;12.50;;;4.28;;
67816;SDS011;54614;47.576;7.524;2022-10-16T08:25:48;16.77;;;4.22;;
67816;SDS011;54614;47.576;7.524;2022-10-16T08:28:14;12.55;;;4.03;;
67816;SDS011;54614;47.576;7.524;2022-10-16T08:30:41;11.52;;;4.07;;
67816;SDS011;54614;47.576;7.524;2022-10-16T08:33:07;7.85;;;3.65;;
67816;SDS011;54614;47.576;7.524;2022-10-16T08:35:33;11.70;;;3.90;;
67816;SDS011;54614;47.576;7.524;2022-10-16T08:37:59;15.00;;;3.83;;
67816;SDS011;54614;47.576;7.524;2022-10-16T08:40:28;13.25;;;3.55;;
67816;SDS011;54614;47.576;7.524;2022-10-16T08:53:58;17.25;;;3.75;;
67816;SDS011;54614;47.576;7.524;2022-10-16T08:56:28;14.43;;;3.92;;
67816;SDS011;54614;47.576;7.524;2022-10-16T08:58:54;11.82;;;3.60;;
67816;SDS011;54614;47.576;7.524;2022-10-16T09:01:22;12.77;;;3.40;;
67816;SDS011;54614;47.576;7.524;2022-10-16T09:09:59;14.88;;;3.95;;
67816;SDS011;54614;47.576;7.524;2022-10-16T09:13:09;7.28;;;3.28;;
67816;SDS011;54614;47.576;7.524;2022-10-16T09:18:45;12.85;;;4.47;;
67816;SDS011;54614;47.576;7.524;2022-10-16T09:21:29;8.30;;;4.40;;
67816;SDS011;54614;47.576;7.524;2022-10-16T09:26:44;6.63;;;3.75;;
67816;SDS011;54614;47.576;7.524;2022-10-16T09:29:12;9.32;;;3.50;;
67816;SDS011;54614;47.576;7.524;2022-10-16T09:31:46;9.30;;;4.07;;
67816;SDS011;54614;47.576;7.524;2022-10-16T09:34:32;16.83;;;4.65;;
67816;SDS011;54614;47.576;7.524;2022-10-16T09:37:08;15.73;;;4.15;;
67816;SDS011;54614;47.576;7.524;2022-10-16T09:39:49;15.25;;;4.28;;
67816;SDS011;54614;47.576;7.524;2022-10-16T09:42:30;11.27;;;3.88;;
67816;SDS011;54614;47.576;7.524;2022-10-16T09:45:01;8.80;;;3.85;;
67816;SDS011;54614;47.576;7.524;2022-10-16T09:47:29;10.70;;;4.18;;
67816;SDS011;54614;47.576;7.524;2022-10-16T09:50:00;10.40;;;4.05;;
67816;SDS011;54614;47.576;7.524;2022-10-16T09:52:46;8.00;;;4.25;;
67816;SDS011;54614;47.576;7.524;2022-10-16T09:55:16;10.65;;;4.00;;
67816;SDS011;54614;47.576;7.524;2022-10-16T09:57:53;8.80;;;3.83;;
67816;SDS011;54614;47.576;7.524;2022-10-16T10:00:20;10.48;;;3.75;;
67816;SDS011;54614;47.576;7.524;2022-10-16T10:02:48;15.25;;;4.28;;
67816;SDS011;54614;47.576;7.524;2022-10-16T10:05:22;10.65;;;3.80;;
67816;SDS011;54614;47.576;7.524;2022-10-16T10:08:00;7.70;;;3.42;;
67816;SDS011;54614;47.576;7.524;2022-10-16T10:10:32;8.55;;;3.50;;
67816;SDS011;54614;47.576;7.524;2022-10-16T10:13:18;7.97;;;3.70;;
67816;SDS011;54614;47.576;7.524;2022-10-16T10:15:47;17.60;;;4.20;;
67816;SDS011;54614;47.576;7.524;2022-10-16T10:18:17;8.30;;;3.90;;
67816;SDS011;54614;47.576;7.524;2022-10-16T10:20:46;8.23;;;3.70;;
67816;SDS011;54614;47.576;7.524;2022-10-16T10:23:25;6.85;;;3.83;;
67816;SDS011;54614;47.576;7.524;2022-10-16T10:26:07;8.75;;;3.67;;
67816;SDS011;54614;47.576;7.524;2022-10-16T10:37:40;6.63;;;3.65;;
67816;SDS011;54614;47.576;7.524;2022-10-16T10:40:51;6.30;;;3.90;;
67816;SDS011;54614;47.576;7.524;2022-10-16T10:46:34;7.50;;;3.70;;
67816;SDS011;54614;47.576;7.524;2022-10-16T10:49:24;6.90;;;3.63;;
67816;SDS011;54614;47.576;7.524;2022-10-16T10:54:38;4.55;;;3.45;;
67816;SDS011;54614;47.576;7.524;2022-10-16T11:01:25;5.40;;;3.45;;
67816;SDS011;54614;47.576;7.524;2022-10-16T11:06:52;7.40;;;3.58;;
67816;SDS011;54614;47.576;7.524;2022-10-16T11:09:34;4.95;;;3.35;;
67816;SDS011;54614;47.576;7.524;2022-10-16T11:12:10;4.80;;;2.80;;
67816;SDS011;54614;47.576;7.524;2022-10-16T11:14:53;4.68;;;3.00;;
67816;SDS011;54614;47.576;7.524;2022-10-16T11:17:38;5.75;;;3.00;;
67816;SDS011;54614;47.576;7.524;2022-10-16T11:23:15;9.95;;;3.22;;
67816;SDS011;54614;47.576;7.524;2022-10-16T11:25:54;6.47;;;3.30;;
67816;SDS011;54614;47.576;7.524;2022-10-16T11:28:34;5.30;;;2.72;;
67816;SDS011;54614;47.576;7.524;2022-10-16T11:31:14;4.60;;;2.70;;
67816;SDS011;54614;47.576;7.524;2022-10-16T11:34:16;5.00;;;2.70;;
67816;SDS011;54614;47.576;7.524;2022-10-16T11:37:11;6.50;;;2.97;;
67816;SDS011;54614;47.576;7.524;2022-10-16T11:39:42;11.40;;;2.90;;
67816;SDS011;54614;47.576;7.524;2022-10-16T11:47:45;12.80;;;2.75;;
67816;SDS011;54614;47.576;7.524;2022-10-16T11:53:39;6.15;;;2.90;;
67816;SDS011;54614;47.576;7.524;2022-10-16T11:56:19;5.85;;;2.55;;
67816;SDS011;54614;47.576;7.524;2022-10-16T12:07:11;7.80;;;2.38;;
67816;SDS011;54614;47.576;7.524;2022-10-16T12:12:44;6.20;;;2.20;;
67816;SDS011;54614;47.576;7.524;2022-10-16T12:15:27;10.00;;;2.40;;
67816;SDS011;54614;47.576;7.524;2022-10-16T12:17:55;4.38;;;2.17;;
67816;SDS011;54614;47.576;7.524;2022-10-16T12:20:26;4.05;;;2.25;;
67816;SDS011;54614;47.576;7.524;2022-10-16T12:23:00;3.92;;;2.10;;
67816;SDS011;54614;47.576;7.524;2022-10-16T12:25:32;6.20;;;2.25;;
67816;SDS011;54614;47.576;7.524;2022-10-16T12:30:53;6.07;;;2.10;;
67816;SDS011;54614;47.576;7.524;2022-10-16T12:36:01;6.57;;;2.15;;
67816;SDS011;54614;47.576;7.524;2022-10-16T12:38:45;2.80;;;2.20;;
67816;SDS011;54614;47.576;7.524;2022-10-16T12:44:04;5.45;;;2.20;;
67816;SDS011;54614;47.576;7.524;2022-10-16T12:46:51;3.38;;;2.17;;
67816;SDS011;54614;47.576;7.524;2022-10-16T12:52:01;2.50;;;2.00;;
67816;SDS011;54614;47.576;7.524;2022-10-16T12:54:29;3.25;;;2.10;;
67816;SDS011;54614;47.576;7.524;2022-10-16T13:20:22;2.97;;;1.90;;
67816;SDS011;54614;47.576;7.524;2022-10-16T13:26:21;5.80;;;2.15;;
67816;SDS011;54614;47.576;7.524;2022-10-16T13:29:08;4.57;;;1.60;;
67816;SDS011;54614;47.576;7.524;2022-10-16T13:31:36;6.18;;;1.70;;
67816;SDS011;54614;47.576;7.524;2022-10-16T13:34:04;2.22;;;1.98;;
67816;SDS011;54614;47.576;7.524;2022-10-16T13:36:43;2.72;;;1.60;;
67816;SDS011;54614;47.576;7.524;2022-10-16T13:44:45;3.72;;;1.80;;
67816;SDS011;54614;47.576;7.524;2022-10-16T13:47:17;1.75;;;1.65;;
67816;SDS011;54614;47.576;7.524;2022-10-16T13:50:03;3.42;;;1.60;;
67816;SDS011;54614;47.576;7.524;2022-10-16T13:52:36;2.00;;;1.48;;
67816;SDS011;54614;47.576;7.524;2022-10-16T13:55:03;1.70;;;1.60;;
67816;SDS011;54614;47.576;7.524;2022-10-16T13:57:39;3.63;;;1.77;;
67816;SDS011;54614;47.576;7.524;2022-10-16T14:00:26;1.90;;;1.42;;
67816;SDS011;54614;47.576;7.524;2022-10-16T14:03:14;1.73;;;1.63;;
67816;SDS011;54614;47.576;7.524;2022-10-16T14:05:45;2.85;;;1.70;;
67816;SDS011;54614;47.576;7.524;2022-10-16T14:08:15;3.03;;;1.77;;
67816;SDS011;54614;47.576;7.524;2022-10-16T14:10:41;1.80;;;1.70;;
67816;SDS011;54614;47.576;7.524;2022-10-16T14:13:08;1.75;;;1.50;;
67816;SDS011;54614;47.576;7.524;2022-10-16T14:15:49;1.80;;;1.70;;
67816;SDS011;54614;47.576;7.524;2022-10-16T14:18:18;1.92;;;1.80;;
67816;SDS011;54614;47.576;7.524;2022-10-16T14:20:48;1.85;;;1.75;;
67816;SDS011;54614;47.576;7.524;2022-10-16T14:23:22;1.60;;;1.50;;
67816;SDS011;54614;47.576;7.524;2022-10-16T14:25:53;2.30;;;1.60;;
67816;SDS011;54614;47.576;7.524;2022-10-16T14:28:40;2.03;;;1.48;;
67816;SDS011;54614;47.576;7.524;2022-10-16T14:33:56;1.50;;;1.40;;
67816;SDS011;54614;47.576;7.524;2022-10-16T14:36:24;2.28;;;1.65;;
67816;SDS011;54614;47.576;7.524;2022-10-16T14:41:33;2.65;;;1.63;;
67816;SDS011;54614;47.576;7.524;2022-10-16T14:44:11;2.45;;;1.50;;
67816;SDS011;54614;47.576;7.524;2022-10-16T14:46:39;2.90;;;1.70;;
67816;SDS011;54614;47.576;7.524;2022-10-16T14:51:37;1.85;;;1.50;;
67816;SDS011;54614;47.576;7.524;2022-10-16T14:54:10;1.67;;;1.40;;
67816;SDS011;54614;47.576;7.524;2022-10-16T14:56:48;1.60;;;1.50;;
67816;SDS011;54614;47.576;7.524;2022-10-16T14:59:32;2.20;;;1.52;;
67816;SDS011;54614;47.576;7.524;2022-10-16T15:04:47;3.17;;;1.60;;
67816;SDS011;54614;47.576;7.524;2022-10-16T15:07:14;1.58;;;1.48;;
67816;SDS011;54614;47.576;7.524;2022-10-16T15:09:40;3.83;;;1.70;;
67816;SDS011;54614;47.576;7.524;2022-10-16T15:12:06;2.03;;;1.60;;
67816;SDS011;54614;47.576;7.524;2022-10-16T15:14:31;3.72;;;1.40;;
67816;SDS011;54614;47.576;7.524;2022-10-16T15:16:57;2.85;;;1.30;;
67816;SDS011;54614;47.576;7.524;2022-10-16T15:19:23;1.52;;;1.42;;
67816;SDS011;54614;47.576;7.524;2022-10-16T15:21:49;3.05;;;1.63;;
67816;SDS011;54614;47.576;7.524;2022-10-16T15:24:15;1.88;;;1.40;;
67816;SDS011;54614;47.576;7.524;2022-10-16T15:26:41;1.58;;;1.48;;
67816;SDS011;54614;47.576;7.524;2022-10-16T15:29:07;1.60;;;1.50;;
67816;SDS011;54614;47.576;7.524;2022-10-16T15:31:33;1.63;;;1.40;;
67816;SDS011;54614;47.576;7.524;2022-10-16T15:34:00;2.65;;;1.67;;
67816;SDS011;54614;47.576;7.524;2022-10-16T15:36:32;2.92;;;1.60;;
67816;SDS011;54614;47.576;7.524;2022-10-16T15:39:19;2.67;;;1.50;;
67816;SDS011;54614;47.576;7.524;2022-10-16T15:41:46;1.77;;;1.40;;
67816;SDS011;54614;47.576;7.524;2022-10-16T15:44:18;3.47;;;1.67;;
67816;SDS011;54614;47.576;7.524;2022-10-16T15:46:47;1.90;;;1.60;;
67816;SDS011;54614;47.576;7.524;2022-10-16T15:49:13;2.17;;;1.55;;
67816;SDS011;54614;47.576;7.524;2022-10-16T15:51:41;1.70;;;1.60;;
67816;SDS011;54614;47.576;7.524;2022-10-16T15:54:07;2.33;;;1.67;;
67816;SDS011;54614;47.576;7.524;2022-10-16T15:56:34;1.70;;;1.58;;
67816;SDS011;54614;47.576;7.524;2022-10-16T15:59:01;1.60;;;1.50;;
67816;SDS011;54614;47.576;7.524;2022-10-16T16:01:31;2.90;;;1.80;;
67816;SDS011;54614;47.576;7.524;2022-10-16T16:04:00;1.80;;;1.70;;
67816;SDS011;54614;47.576;7.524;2022-10-16T16:06:26;5.10;;;1.80;;
67816;SDS011;54614;47.576;7.524;2022-10-16T16:08:53;1.75;;;1.65;;
67816;SDS011;54614;47.576;7.524;2022-10-16T16:11:19;2.10;;;1.80;;
67816;SDS011;54614;47.576;7.524;2022-10-16T16:13:45;1.98;;;1.77;;
67816;SDS011;54614;47.576;7.524;2022-10-16T16:16:12;2.90;;;1.92;;
67816;SDS011;54614;47.576;7.524;2022-10-16T16:18:41;9.43;;;2.08;;
67816;SDS011;54614;47.576;7.524;2022-10-16T16:21:09;5.28;;;2.42;;
67816;SDS011;54614;47.576;7.524;2022-10-16T16:23:37;11.65;;;2.58;;
67816;SDS011;54614;47.576;7.524;2022-10-16T16:26:13;11.38;;;2.85;;
67816;SDS011;54614;47.576;7.524;2022-10-16T16:28:51;13.85;;;3.05;;
67816;SDS011;54614;47.576;7.524;2022-10-16T16:31:19;7.10;;;2.17;;
67816;SDS011;54614;47.576;7.524;2022-10-16T16:33:49;4.70;;;2.30;;
67816;SDS011;54614;47.576;7.524;2022-10-16T16:36:16;5.75;;;2.47;;
67816;SDS011;54614;47.576;7.524;2022-10-16T16:38:43;5.80;;;2.20;;
67816;SDS011;54614;47.576;7.524;2022-10-16T16:41:27;3.90;;;2.15;;
67816;SDS011;54614;47.576;7.524;2022-10-16T16:44:06;3.33;;;2.30;;
67816;SDS011;54614;47.576;7.524;2022-10-16T16:46:41;3.85;;;2.20;;
67816;SDS011;54614;47.576;7.524;2022-10-16T16:49:09;5.40;;;2.08;;
67816;SDS011;54614;47.576;7.524;2022-10-16T16:51:42;3.80;;;2.40;;
67816;SDS011;54614;47.576;7.524;2022-10-16T16:54:07;4.50;;;2.47;;
67816;SDS011;54614;47.576;7.524;2022-10-16T16:56:38;6.43;;;2.30;;
67816;SDS011;54614;47.576;7.524;2022-10-16T16:59:10;5.78;;;2.05;;
67816;SDS011;54614;47.576;7.524;2022-10-16T17:01:40;5.13;;;2.20;;
67816;SDS011;54614;47.576;7.524;2022-10-16T17:04:06;4.80;;;1.90;;
67816;SDS011;54614;47.576;7.524;2022-10-16T17:06:32;3.40;;;2.00;;
67816;SDS011;54614;47.576;7.524;2022-10-16T17:09:00;2.75;;;1.92;;
67816;SDS011;54614;47.576;7.524;2022-10-16T17:11:28;8.23;;;2.03;;
67816;SDS011;54614;47.576;7.524;2022-10-16T17:13:55;3.45;;;1.85;;
67816;SDS011;54614;47.576;7.524;2022-10-16T17:16:24;2.83;;;1.90;;
67816;SDS011;54614;47.576;7.524;2022-10-16T17:19:01;4.75;;;1.90;;
67816;SDS011;54614;47.576;7.524;2022-10-16T17:21:37;3.33;;;1.88;;
67816;SDS011;54614;47.576;7.524;2022-10-16T17:24:04;3.85;;;2.13;;
67816;SDS011;54614;47.576;7.524;2022-10-16T17:26:31;2.97;;;1.80;;